National Geographic Sea Lion — WUR9646 — position and weather

sailwx.info

Track history (hours):
 
Tides and Currents Weather Stations Pressure Air Temp Water Temp Dewpoint Dewpoint Depression Visibility Wind Speed Wind Dir Waves Ship Positions

National Geographic Sea Lion

Owner: Lindblad Expeditions LLC, SEATTLE, WA. More information available from US FCC via Universal Licensing System and Coast Guard Vessel Documentation Center.

Last reported at 2019-Jul-16 10:28 UTC. Time now 2019-Jul-16 10:51 UTC.
Position N 58°23' W 135°44'.

Length 45 m; draft 2.4 m.

Type: Passenger vessel. MMSI: 366396000.

Date/timePositionNaut miles runAvg speedWind from/ knotsBaromVisibWave heightAir tempDewpointWater temp
2019-Jul-16 10:28N 58°23' W 135°44'0 0.1
2019-Jul-16 09:55N 58°23' W 135°44'0 0.0
2019-Jul-16 09:25N 58°23' W 135°44'0 0.0
2019-Jul-16 08:58N 58°23' W 135°44'0 0.0
2019-Jul-16 08:25N 58°23' W 135°44'0 0.1
2019-Jul-16 07:58N 58°23' W 135°44'0 0.1
2019-Jul-16 07:22N 58°23' W 135°44'0 0.0
2019-Jul-16 06:58N 58°23' W 135°44'0 0.0
2019-Jul-16 06:25N 58°23' W 135°44'0 0.1
2019-Jul-16 05:55N 58°23' W 135°44'0 0.0
2019-Jul-16 05:28N 58°23' W 135°44'0 0.0
2019-Jul-16 04:58N 58°23' W 135°44'0 0.1
2019-Jul-16 04:28N 58°23' W 135°44'2 4.5
2019-Jul-16 04:00N 58°22' W 135°47'510.8
2019-Jul-16 03:30N 58°19' W 135°55'510.3
2019-Jul-16 03:00N 58°19' W 136°05'5 9.6
2019-Jul-16 02:30N 58°19' W 136°14'4 9.0
2019-Jul-16 02:00N 58°21' W 136°21'1 0.1
2019-Jul-15 15:33N 58°21' W 136°22'0 0.5
2019-Jul-15 15:02N 58°21' W 136°22'0 4.7
2019-Jul-15 15:00N 58°21' W 136°22'3 6.5
2019-Jul-15 14:30N 58°18' W 136°18'4 7.8
2019-Jul-15 14:00N 58°19' W 136°11'4 7.2
2019-Jul-15 13:31N 58°20' W 136°04'4 7.7
2019-Jul-15 13:01N 58°19' W 135°57'4 7.5
2019-Jul-15 12:31N 58°18' W 135°50'4 7.8
2019-Jul-15 12:00N 58°17' W 135°43'4 7.9
2019-Jul-15 11:29N 58°15' W 135°36'6 7.8
2019-Jul-15 10:43N 58°12' W 135°26'  
2019-Jul-12 07:14N 58°15' W 135°32'3 9.8
2019-Jul-12 06:54N 58°16' W 135°37'4 9.9
2019-Jul-12 06:30N 58°17' W 135°44'3 5.9
2019-Jul-12 06:00N 58°17' W 135°50'0 0.9
2019-Jul-12 05:30N 58°17' W 135°51'1 1.7
2019-Jul-12 05:00N 58°17' W 135°53'510.0
2019-Jul-12 04:30N 58°21' W 135°47'3 6.0
2019-Jul-12 04:00N 58°23' W 135°42'0 0.6
2019-Jul-12 03:30N 58°23' W 135°43'2 3.4
2019-Jul-12 03:00N 58°23' W 135°46'510.3
2019-Jul-12 02:30N 58°21' W 135°56'1310.3
2019-Jul-12 01:15N 58°20' W 136°20'2 6.2
2019-Jul-12 01:00N 58°21' W 136°22'0 0.0
2019-Jul-11 22:56N 58°21' W 136°22'0 0.0
2019-Jul-11 17:20N 58°21' W 136°22'0 0.0
2019-Jul-11 15:29N 58°21' W 136°22'2 4.0
2019-Jul-11 14:59N 58°20' W 136°20'4 8.6
2019-Jul-11 14:30N 58°19' W 136°12'5 9.6
2019-Jul-11 14:00N 58°20' W 136°03'4 7.3
2019-Jul-11 13:30N 58°21' W 135°57'510.3
2019-Jul-11 13:00N 58°22' W 135°47'2 4.9
2019-Jul-11 12:30N 58°23' W 135°43'0 0.0
2019-Jul-11 11:46N 58°23' W 135°43'0 0.0
2019-Jul-11 11:28N 58°23' W 135°43'0 0.0
2019-Jul-11 10:52N 58°23' W 135°43'0 0.0
2019-Jul-11 10:22N 58°23' W 135°43'0 0.0
2019-Jul-11 09:55N 58°23' W 135°43'0 0.0
2019-Jul-11 09:25N 58°23' W 135°43'0 0.2
2019-Jul-11 08:58N 58°23' W 135°43'0 0.0
2019-Jul-11 08:28N 58°23' W 135°43'0 0.0
2019-Jul-11 07:58N 58°23' W 135°43'0 0.1
2019-Jul-11 07:19N 58°23' W 135°43'0 0.1
2019-Jul-11 06:55N 58°23' W 135°43'0 0.1
2019-Jul-11 06:25N 58°23' W 135°43'0 0.1
2019-Jul-11 05:55N 58°23' W 135°43'0 0.0
2019-Jul-11 05:28N 58°23' W 135°43'0 0.0
2019-Jul-11 04:55N 58°23' W 135°43'0 0.0
2019-Jul-11 04:28N 58°23' W 135°43'0 0.0
2019-Jul-11 03:58N 58°23' W 135°43'1 1.9
2019-Jul-11 03:30N 58°23' W 135°44'510.3
2019-Jul-11 03:00N 58°20' W 135°52'611.1
2019-Jul-11 02:30N 58°16' W 136°01'711.0
2019-Jul-11 01:55N 58°14' W 136°12'4 9.1
2019-Jul-11 01:29N 58°14' W 136°20'1 0.1
2019-Jul-10 14:41N 58°14' W 136°20'1 7.3
2019-Jul-10 14:30N 58°14' W 136°17'4 7.6
2019-Jul-10 14:00N 58°14' W 136°10'4 8.7
2019-Jul-10 13:30N 58°15' W 136°02'5 9.3
2019-Jul-10 13:00N 58°17' W 135°54'4 8.6
2019-Jul-10 12:30N 58°18' W 135°46'510.1
2019-Jul-10 12:00N 58°15' W 135°38'  
Track history (hours):
 
Tides and Currents Weather Stations Pressure Air Temp Water Temp Dewpoint Dewpoint Depression Visibility Wind Speed Wind Dir Waves Ship Positions

National Geographic Sea Lion

Owner: Lindblad Expeditions LLC, SEATTLE, WA. More information available from US FCC via Universal Licensing System and Coast Guard Vessel Documentation Center.

Last reported at 2019-Jul-16 10:28 UTC. Time now 2019-Jul-16 10:51 UTC.
Position N 58°23' W 135°44'.

Length 45 m; draft 2.4 m.

Type: Passenger vessel. MMSI: 366396000.

Date/timePositionNaut miles runAvg speedWind from/ knotsBaromVisibWave heightAir tempDewpointWater temp
2019-Jul-16 10:28N 58°23' W 135°44'0 0.1
2019-Jul-16 09:55N 58°23' W 135°44'0 0.0
2019-Jul-16 09:25N 58°23' W 135°44'0 0.0
2019-Jul-16 08:58N 58°23' W 135°44'0 0.0
2019-Jul-16 08:25N 58°23' W 135°44'0 0.1
2019-Jul-16 07:58N 58°23' W 135°44'0 0.1
2019-Jul-16 07:22N 58°23' W 135°44'0 0.0
2019-Jul-16 06:58N 58°23' W 135°44'0 0.0
2019-Jul-16 06:25N 58°23' W 135°44'0 0.1
2019-Jul-16 05:55N 58°23' W 135°44'0 0.0
2019-Jul-16 05:28N 58°23' W 135°44'0 0.0
2019-Jul-16 04:58N 58°23' W 135°44'0 0.1
2019-Jul-16 04:28N 58°23' W 135°44'2 4.5
2019-Jul-16 04:00N 58°22' W 135°47'510.8
2019-Jul-16 03:30N 58°19' W 135°55'510.3
2019-Jul-16 03:00N 58°19' W 136°05'5 9.6
2019-Jul-16 02:30N 58°19' W 136°14'4 9.0
2019-Jul-16 02:00N 58°21' W 136°21'1 0.1
2019-Jul-15 15:33N 58°21' W 136°22'0 0.5
2019-Jul-15 15:02N 58°21' W 136°22'0 4.7
2019-Jul-15 15:00N 58°21' W 136°22'3 6.5
2019-Jul-15 14:30N 58°18' W 136°18'4 7.8
2019-Jul-15 14:00N 58°19' W 136°11'4 7.2
2019-Jul-15 13:31N 58°20' W 136°04'4 7.7
2019-Jul-15 13:01N 58°19' W 135°57'4 7.5
2019-Jul-15 12:31N 58°18' W 135°50'4 7.8
2019-Jul-15 12:00N 58°17' W 135°43'4 7.9
2019-Jul-15 11:29N 58°15' W 135°36'6 7.8
2019-Jul-15 10:43N 58°12' W 135°26'  
2019-Jul-12 07:14N 58°15' W 135°32'3 9.8
2019-Jul-12 06:54N 58°16' W 135°37'4 9.9
2019-Jul-12 06:30N 58°17' W 135°44'3 5.9
2019-Jul-12 06:00N 58°17' W 135°50'0 0.9
2019-Jul-12 05:30N 58°17' W 135°51'1 1.7
2019-Jul-12 05:00N 58°17' W 135°53'510.0
2019-Jul-12 04:30N 58°21' W 135°47'3 6.0
2019-Jul-12 04:00N 58°23' W 135°42'0 0.6
2019-Jul-12 03:30N 58°23' W 135°43'2 3.4
2019-Jul-12 03:00N 58°23' W 135°46'510.3
2019-Jul-12 02:30N 58°21' W 135°56'1310.3
2019-Jul-12 01:15N 58°20' W 136°20'2 6.2
2019-Jul-12 01:00N 58°21' W 136°22'0 0.0
2019-Jul-11 22:56N 58°21' W 136°22'0 0.0
2019-Jul-11 17:20N 58°21' W 136°22'0 0.0
2019-Jul-11 15:29N 58°21' W 136°22'2 4.0
2019-Jul-11 14:59N 58°20' W 136°20'4 8.6
2019-Jul-11 14:30N 58°19' W 136°12'5 9.6
2019-Jul-11 14:00N 58°20' W 136°03'4 7.3
2019-Jul-11 13:30N 58°21' W 135°57'510.3
2019-Jul-11 13:00N 58°22' W 135°47'2 4.9
2019-Jul-11 12:30N 58°23' W 135°43'0 0.0
2019-Jul-11 11:46N 58°23' W 135°43'0 0.0
2019-Jul-11 11:28N 58°23' W 135°43'0 0.0
2019-Jul-11 10:52N 58°23' W 135°43'0 0.0
2019-Jul-11 10:22N 58°23' W 135°43'0 0.0
2019-Jul-11 09:55N 58°23' W 135°43'0 0.0
2019-Jul-11 09:25N 58°23' W 135°43'0 0.2
2019-Jul-11 08:58N 58°23' W 135°43'0 0.0
2019-Jul-11 08:28N 58°23' W 135°43'0 0.0
2019-Jul-11 07:58N 58°23' W 135°43'0 0.1
2019-Jul-11 07:19N 58°23' W 135°43'0 0.1
2019-Jul-11 06:55N 58°23' W 135°43'0 0.1
2019-Jul-11 06:25N 58°23' W 135°43'0 0.1
2019-Jul-11 05:55N 58°23' W 135°43'0 0.0
2019-Jul-11 05:28N 58°23' W 135°43'0 0.0
2019-Jul-11 04:55N 58°23' W 135°43'0 0.0
2019-Jul-11 04:28N 58°23' W 135°43'0 0.0
2019-Jul-11 03:58N 58°23' W 135°43'1 1.9
2019-Jul-11 03:30N 58°23' W 135°44'510.3
2019-Jul-11 03:00N 58°20' W 135°52'611.1
2019-Jul-11 02:30N 58°16' W 136°01'711.0
2019-Jul-11 01:55N 58°14' W 136°12'4 9.1
2019-Jul-11 01:29N 58°14' W 136°20'1 0.1
2019-Jul-10 14:41N 58°14' W 136°20'1 7.3
2019-Jul-10 14:30N 58°14' W 136°17'4 7.6
2019-Jul-10 14:00N 58°14' W 136°10'4 8.7
2019-Jul-10 13:30N 58°15' W 136°02'5 9.3
2019-Jul-10 13:00N 58°17' W 135°54'4 8.6
2019-Jul-10 12:30N 58°18' W 135°46'510.1
2019-Jul-10 12:00N 58°15' W 135°38'  

Dump ship's entire track history